createdAt,value
2022-09-29T00:00:54.245Z,1.85
2022-09-29T00:03:22.691Z,1.50
2022-09-29T00:05:53.810Z,1.73
2022-09-29T00:08:22.229Z,1.80
2022-09-29T00:10:49.447Z,1.55
2022-09-29T00:13:17.617Z,1.65
2022-09-29T00:15:44.942Z,2.10
2022-09-29T00:18:14.409Z,1.50
2022-09-29T00:20:42.175Z,1.90
2022-09-29T00:23:09.235Z,1.95
2022-09-29T00:25:36.266Z,1.83
2022-09-29T00:28:03.278Z,1.65
2022-09-29T00:30:30.406Z,1.90
2022-09-29T00:32:57.538Z,1.65
2022-09-29T00:35:24.616Z,2.30
2022-09-29T00:37:51.665Z,1.70
2022-09-29T00:40:18.963Z,1.70
2022-09-29T00:42:46.012Z,1.55
2022-09-29T00:45:15.452Z,1.48
2022-09-29T00:47:45.132Z,2.10
2022-09-29T00:50:22.373Z,1.55
2022-09-29T00:52:56.521Z,1.48
2022-09-29T00:55:36.925Z,1.67
2022-09-29T00:58:22.890Z,2.00
2022-09-29T01:00:50.425Z,1.45
2022-09-29T01:03:22.806Z,1.60
2022-09-29T01:05:56.574Z,1.50
2022-09-29T01:08:45.353Z,1.77
2022-09-29T01:11:16.198Z,1.50
2022-09-29T01:13:43.425Z,1.50
2022-09-29T01:16:10.472Z,1.90
2022-09-29T01:18:38.053Z,1.83
2022-09-29T01:21:21.745Z,1.30
2022-09-29T01:23:51.885Z,1.52
2022-09-29T01:26:47.315Z,1.60
2022-09-29T01:29:17.448Z,1.77
2022-09-29T01:31:56.675Z,1.40
2022-09-29T01:34:32.833Z,1.85
2022-09-29T01:37:24.647Z,1.17
2022-09-29T01:40:16.032Z,1.42
2022-09-29T01:42:58.951Z,1.58
2022-09-29T01:45:42.308Z,1.60
2022-09-29T01:48:18.642Z,1.48
2022-09-29T01:50:52.859Z,1.33
2022-09-29T01:53:30.349Z,1.88
2022-09-29T01:56:03.579Z,1.60
2022-09-29T01:58:43.338Z,1.95
2022-09-29T02:01:14.744Z,1.33
2022-09-29T02:03:46.863Z,1.90
2022-09-29T02:06:21.605Z,1.45
2022-09-29T02:08:57.225Z,2.30
2022-09-29T02:11:24.724Z,1.52
2022-09-29T02:14:10.545Z,1.20
2022-09-29T02:16:43.756Z,1.65
2022-09-29T02:19:15.640Z,1.88
2022-09-29T02:21:44.148Z,1.45
2022-09-29T02:24:14.836Z,2.67
2022-09-29T02:26:43.378Z,1.38
2022-09-29T02:29:10.557Z,1.65
2022-09-29T02:31:38.895Z,1.75
2022-09-29T02:34:09.084Z,1.65
2022-09-29T02:37:18.276Z,1.45
2022-09-29T02:40:03.952Z,1.50
2022-09-29T02:45:28.466Z,1.60
2022-09-29T02:48:43.632Z,1.83
2022-09-29T02:51:48.363Z,1.40
2022-09-29T02:54:18.624Z,1.58
2022-09-29T02:56:57.723Z,1.50
2022-09-29T02:59:31.170Z,2.20
2022-09-29T03:01:58.301Z,1.80
2022-09-29T03:04:27.462Z,1.50
2022-09-29T03:06:54.769Z,1.75
2022-09-29T03:09:22.073Z,2.25
2022-09-29T03:11:49.265Z,1.83
2022-09-29T03:14:16.376Z,1.83
2022-09-29T03:16:44.578Z,1.90
2022-09-29T03:19:11.682Z,2.05
2022-09-29T03:21:38.724Z,1.77
2022-09-29T03:24:06.372Z,1.67
2022-09-29T03:26:33.792Z,1.58
2022-09-29T03:29:01.174Z,1.58
2022-09-29T03:31:28.306Z,1.98
2022-09-29T03:33:58.172Z,1.70
2022-09-29T03:36:25.289Z,1.90
2022-09-29T03:38:52.290Z,2.15
2022-09-29T03:41:19.560Z,2.15
2022-09-29T03:43:46.759Z,2.15
2022-09-29T03:46:13.845Z,2.00
2022-09-29T03:48:41.461Z,3.03
2022-09-29T03:51:08.978Z,2.03
2022-09-29T03:53:36.640Z,2.22
2022-09-29T03:56:04.649Z,2.08
2022-09-29T03:58:31.952Z,2.05
2022-09-29T04:00:59.324Z,1.92
2022-09-29T04:03:26.479Z,2.10
2022-09-29T04:05:53.553Z,1.85
2022-09-29T04:08:20.621Z,1.73
2022-09-29T04:10:48.317Z,1.70
2022-09-29T04:13:19.844Z,1.80
2022-09-29T04:15:50.316Z,1.75
2022-09-29T04:18:17.686Z,2.08
2022-09-29T04:20:44.690Z,1.80
2022-09-29T04:23:12.854Z,2.05
2022-09-29T04:25:39.884Z,1.85
2022-09-29T04:28:07.014Z,2.13
2022-09-29T04:30:34.043Z,1.48
2022-09-29T04:33:01.158Z,2.50
2022-09-29T04:35:28.238Z,2.00
2022-09-29T04:37:57.566Z,2.10
2022-09-29T04:40:25.438Z,1.90
2022-09-29T04:42:52.594Z,2.00
2022-09-29T04:45:19.642Z,1.90
2022-09-29T04:47:46.792Z,2.00
2022-09-29T04:50:14.122Z,2.25
2022-09-29T04:52:43.519Z,1.95
2022-09-29T04:55:11.597Z,1.70
2022-09-29T04:57:40.285Z,1.80
2022-09-29T05:00:08.365Z,2.08
2022-09-29T05:02:36.058Z,1.98
2022-09-29T05:05:04.107Z,2.05
2022-09-29T05:07:31.145Z,1.90
2022-09-29T05:09:58.219Z,1.85
2022-09-29T05:12:25.312Z,1.90
2022-09-29T05:14:52.301Z,1.60
2022-09-29T05:17:19.409Z,2.53
2022-09-29T05:19:46.453Z,2.15
2022-09-29T05:22:13.541Z,1.52
2022-09-29T05:24:40.648Z,2.08
2022-09-29T05:27:07.872Z,1.80
2022-09-29T05:29:35.111Z,2.10
2022-09-29T05:32:02.302Z,2.10
2022-09-29T05:34:29.407Z,1.23
2022-09-29T05:36:56.574Z,2.13
2022-09-29T05:39:23.720Z,2.10
2022-09-29T05:41:50.793Z,1.83
2022-09-29T05:44:17.889Z,1.77
2022-09-29T05:46:45.028Z,2.70
2022-09-29T05:49:12.084Z,2.03
2022-09-29T05:51:39.158Z,1.90
2022-09-29T05:54:06.284Z,2.03
2022-09-29T05:56:33.345Z,2.63
2022-09-29T05:59:01.564Z,2.33
2022-09-29T06:01:29.144Z,1.85
2022-09-29T06:03:57.070Z,1.90
2022-09-29T06:06:26.601Z,2.15
2022-09-29T06:08:54.065Z,1.73
2022-09-29T06:11:29.673Z,1.80
2022-09-29T06:13:56.914Z,2.45
2022-09-29T06:16:26.695Z,1.90
2022-09-29T06:18:54.556Z,2.50
2022-09-29T06:21:25.869Z,1.98
2022-09-29T06:23:55.451Z,1.98
2022-09-29T06:26:24.569Z,2.08
2022-09-29T06:28:52.995Z,2.03
2022-09-29T06:31:22.950Z,2.00
2022-09-29T06:33:50.467Z,2.60
2022-09-29T06:36:38.048Z,2.53
2022-09-29T06:39:06.696Z,2.70
2022-09-29T06:41:34.485Z,2.22
2022-09-29T06:44:02.627Z,2.10
2022-09-29T06:46:30.026Z,1.90
2022-09-29T06:48:57.194Z,1.95
2022-09-29T06:51:35.970Z,1.80
2022-09-29T06:54:11.881Z,2.13
2022-09-29T06:56:40.138Z,2.13
2022-09-29T06:59:08.022Z,2.20
2022-09-29T07:01:35.489Z,2.00
2022-09-29T07:04:02.871Z,2.42
2022-09-29T07:06:30.818Z,2.20
2022-09-29T07:08:59.304Z,2.15
2022-09-29T07:11:27.524Z,1.75
2022-09-29T07:13:55.324Z,2.05
2022-09-29T07:16:26.233Z,2.20
2022-09-29T07:18:53.826Z,2.35
2022-09-29T07:21:22.313Z,1.88
2022-09-29T07:23:50.034Z,1.85
2022-09-29T07:26:17.873Z,1.77
2022-09-29T07:28:46.948Z,2.00
2022-09-29T07:31:17.156Z,2.22
2022-09-29T07:33:45.288Z,2.00
2022-09-29T07:36:14.067Z,2.40
2022-09-29T07:38:41.391Z,1.77
2022-09-29T07:41:11.753Z,2.63
2022-09-29T07:43:39.593Z,2.67
2022-09-29T07:46:08.094Z,2.20
2022-09-29T07:48:36.811Z,2.60
2022-09-29T07:51:21.926Z,2.00
2022-09-29T07:53:49.033Z,1.77
2022-09-29T07:56:18.754Z,1.90
2022-09-29T07:58:47.621Z,1.90
2022-09-29T08:01:16.342Z,1.88
2022-09-29T08:03:49.587Z,2.38
2022-09-29T08:06:16.807Z,1.83
2022-09-29T08:08:55.975Z,1.90
2022-09-29T08:11:31.486Z,2.17
2022-09-29T08:13:59.988Z,1.73
2022-09-29T08:16:27.211Z,2.40
2022-09-29T08:18:54.510Z,2.10
2022-09-29T08:21:21.578Z,1.50
2022-09-29T08:23:48.719Z,2.00
2022-09-29T08:26:20.442Z,1.90
2022-09-29T08:29:04.082Z,2.13
2022-09-29T08:31:34.493Z,2.20
2022-09-29T08:34:01.588Z,1.90
2022-09-29T08:36:29.531Z,1.92
2022-09-29T08:38:58.213Z,1.52
2022-09-29T08:41:28.684Z,2.00
2022-09-29T08:44:02.349Z,2.15
2022-09-29T08:46:39.136Z,1.83
2022-09-29T08:49:33.042Z,1.85
2022-09-29T08:52:17.449Z,2.45
2022-09-29T08:54:49.440Z,2.05
2022-09-29T08:57:19.712Z,2.15
2022-09-29T08:59:56.976Z,1.98
2022-09-29T09:02:36.238Z,1.73
2022-09-29T09:05:41.528Z,1.73
2022-09-29T09:08:30.356Z,1.75
2022-09-29T09:11:28.121Z,1.70
2022-09-29T09:14:13.365Z,1.73
2022-09-29T09:17:05.799Z,2.13
2022-09-29T09:19:55.413Z,1.95
2022-09-29T09:22:48.312Z,1.85
2022-09-29T09:25:15.355Z,1.40
2022-09-29T09:27:46.144Z,1.95
2022-09-29T09:30:18.972Z,2.35
2022-09-29T09:32:49.259Z,1.60
2022-09-29T09:35:29.002Z,1.50
2022-09-29T09:38:01.580Z,1.30
2022-09-29T09:40:38.670Z,1.80
2022-09-29T09:43:12.445Z,1.60
2022-09-29T09:45:43.338Z,1.73
2022-09-29T09:48:23.969Z,2.15
2022-09-29T09:50:53.219Z,1.75
2022-09-29T09:53:34.482Z,1.50
2022-09-29T09:56:40.044Z,2.00
2022-09-29T09:59:13.542Z,1.90
2022-09-29T10:01:41.009Z,1.73
2022-09-29T10:04:12.788Z,1.90
2022-09-29T10:06:40.252Z,2.08
2022-09-29T10:09:13.849Z,1.70
2022-09-29T10:11:42.400Z,2.00
2022-09-29T10:14:09.347Z,1.90
2022-09-29T10:16:47.380Z,2.30
2022-09-29T10:19:14.578Z,1.98
2022-09-29T10:21:44.001Z,1.88
2022-09-29T10:24:31.182Z,1.90
2022-09-29T10:27:01.688Z,2.70
2022-09-29T10:29:38.518Z,1.88
2022-09-29T10:32:16.668Z,1.52
2022-09-29T10:34:49.885Z,1.52
2022-09-29T10:37:28.476Z,1.23
2022-09-29T10:40:18.156Z,1.30
2022-09-29T10:42:48.374Z,1.63
2022-09-29T10:45:20.068Z,1.83
2022-09-29T10:47:59.616Z,1.40
2022-09-29T10:50:39.640Z,1.30
2022-09-29T10:53:34.402Z,1.40
2022-09-29T10:56:09.234Z,1.30
2022-09-29T10:58:57.588Z,1.50
2022-09-29T11:01:32.031Z,1.50
2022-09-29T11:04:03.642Z,1.40
2022-09-29T11:06:39.355Z,1.88
2022-09-29T11:09:16.057Z,1.50
2022-09-29T11:11:48.992Z,2.00
2022-09-29T11:14:44.683Z,2.00
2022-09-29T11:17:37.534Z,2.08
2022-09-29T11:20:11.674Z,1.85
2022-09-29T11:22:59.851Z,1.63
2022-09-29T11:25:42.381Z,1.80
2022-09-29T11:28:27.432Z,1.77
2022-09-29T11:31:14.698Z,1.50
2022-09-29T11:34:15.420Z,2.28
2022-09-29T11:37:02.990Z,2.03
2022-09-29T11:39:41.995Z,1.80
2022-09-29T11:42:33.990Z,1.52
2022-09-29T11:45:03.535Z,1.70
2022-09-29T11:48:06.609Z,1.90
2022-09-29T11:50:47.525Z,1.60
2022-09-29T11:53:45.429Z,1.60
2022-09-29T11:56:39.631Z,1.95
2022-09-29T11:59:12.151Z,1.42
2022-09-29T12:01:54.368Z,1.70
2022-09-29T12:04:46.522Z,2.03
2022-09-29T12:07:38.358Z,1.60
2022-09-29T12:10:26.126Z,1.75
2022-09-29T12:12:56.540Z,1.90
2022-09-29T12:15:41.000Z,1.60
2022-09-29T12:18:32.410Z,2.22
2022-09-29T12:21:01.360Z,2.15
2022-09-29T12:23:30.897Z,2.58
2022-09-29T12:26:22.360Z,2.97
2022-09-29T12:28:56.242Z,2.88
2022-09-29T12:31:36.132Z,2.53
2022-09-29T12:34:12.045Z,2.78
2022-09-29T12:37:02.560Z,2.53
2022-09-29T12:40:03.709Z,2.90
2022-09-29T12:42:52.960Z,3.10
2022-09-29T12:45:31.689Z,2.58
2022-09-29T12:48:40.617Z,2.58
2022-09-29T12:51:34.193Z,2.90
2022-09-29T12:54:23.460Z,2.55
2022-09-29T12:57:02.549Z,2.58
2022-09-29T12:59:38.361Z,2.58
2022-09-29T13:02:18.953Z,2.50
2022-09-29T13:05:04.906Z,2.53
2022-09-29T13:07:41.049Z,2.80
2022-09-29T13:10:39.911Z,2.35
2022-09-29T13:13:29.754Z,2.33
2022-09-29T13:16:18.336Z,2.47
2022-09-29T13:19:00.137Z,2.30
2022-09-29T13:21:56.234Z,2.60
2022-09-29T13:24:46.596Z,2.28
2022-09-29T13:27:35.002Z,2.28
2022-09-29T13:30:22.586Z,3.08
2022-09-29T13:33:10.186Z,2.83
2022-09-29T13:35:43.756Z,3.30
2022-09-29T13:38:40.652Z,2.70
2022-09-29T13:41:12.797Z,2.55
2022-09-29T13:43:59.785Z,2.15
2022-09-29T13:46:29.815Z,2.70
2022-09-29T13:49:12.251Z,2.45
2022-09-29T13:51:54.161Z,3.65
2022-09-29T13:54:25.823Z,2.83
2022-09-29T13:57:11.368Z,2.90
2022-09-29T13:59:56.551Z,2.75
2022-09-29T14:02:41.469Z,3.10
2022-09-29T14:05:31.998Z,3.70
2022-09-29T14:08:16.737Z,2.63
2022-09-29T14:10:54.063Z,2.53
2022-09-29T14:13:40.254Z,2.88
2022-09-29T14:16:26.740Z,2.58
2022-09-29T14:19:02.670Z,2.17
2022-09-29T14:21:50.199Z,2.53
2022-09-29T14:24:36.711Z,2.85
2022-09-29T14:27:32.805Z,2.75
2022-09-29T14:35:37.449Z,2.30
2022-09-29T14:38:34.759Z,2.50
2022-09-29T14:41:07.992Z,2.58
2022-09-29T14:43:41.349Z,2.42
2022-09-29T14:46:51.922Z,2.78
2022-09-29T14:49:56.965Z,3.03
2022-09-29T14:52:43.045Z,2.90
2022-09-29T14:56:00.202Z,2.80
2022-09-29T14:58:59.956Z,3.17
2022-09-29T15:01:32.192Z,3.42
2022-09-29T15:04:07.224Z,3.33
2022-09-29T15:06:34.989Z,2.97
2022-09-29T15:09:16.016Z,3.05
2022-09-29T15:11:46.818Z,3.25
2022-09-29T15:14:41.582Z,2.90
2022-09-29T15:17:29.403Z,3.30
2022-09-29T15:20:08.673Z,2.67
2022-09-29T15:22:38.613Z,2.90
2022-09-29T15:25:27.980Z,2.53
2022-09-29T15:28:02.165Z,3.17
2022-09-29T15:30:32.122Z,3.00
2022-09-29T15:33:27.956Z,2.88
2022-09-29T15:36:07.129Z,3.15
2022-09-29T15:38:41.112Z,2.58
2022-09-29T15:41:11.033Z,3.63
2022-09-29T15:43:53.900Z,3.10
2022-09-29T15:46:24.459Z,2.92
2022-09-29T15:49:18.157Z,2.65
2022-09-29T15:51:57.087Z,3.25
2022-09-29T15:54:26.010Z,2.53
2022-09-29T15:57:11.665Z,4.30
2022-09-29T15:59:54.259Z,2.97
2022-09-29T16:02:34.057Z,2.80
2022-09-29T16:05:05.800Z,2.90
2022-09-29T16:07:39.355Z,2.97
2022-09-29T16:10:18.364Z,2.60
2022-09-29T16:13:08.893Z,2.67
2022-09-29T16:15:42.021Z,3.20
2022-09-29T16:18:43.148Z,2.40
2022-09-29T16:21:22.311Z,2.67
2022-09-29T16:23:59.836Z,2.28
2022-09-29T16:26:40.998Z,4.05
2022-09-29T16:29:13.005Z,3.17
2022-09-29T16:31:42.495Z,3.22
2022-09-29T16:34:31.281Z,3.90
2022-09-29T16:37:05.721Z,3.30
2022-09-29T16:39:50.760Z,3.43
2022-09-29T16:42:25.640Z,3.30
2022-09-29T16:44:54.502Z,4.40
2022-09-29T16:47:21.520Z,4.95
2022-09-29T16:49:55.127Z,4.65
2022-09-29T16:52:29.853Z,4.57
2022-09-29T16:55:13.345Z,3.60
2022-09-29T16:58:01.200Z,4.30
2022-09-29T17:00:29.171Z,3.83
2022-09-29T17:02:57.869Z,4.78
2022-09-29T17:05:26.506Z,3.70
2022-09-29T17:08:22.409Z,4.50
2022-09-29T17:10:55.672Z,4.25
2022-09-29T17:13:24.456Z,4.38
2022-09-29T17:15:52.793Z,4.20
2022-09-29T17:18:22.245Z,3.90
2022-09-29T17:20:49.247Z,4.72
2022-09-29T17:23:16.374Z,4.50
2022-09-29T17:25:45.736Z,4.47
2022-09-29T17:28:27.113Z,4.15
2022-09-29T17:30:55.753Z,4.40
2022-09-29T17:33:22.916Z,4.25
2022-09-29T17:35:55.254Z,4.72
2022-09-29T17:38:24.057Z,5.38
2022-09-29T17:41:03.755Z,4.38
2022-09-29T17:43:31.604Z,4.55
2022-09-29T17:46:00.152Z,4.80
2022-09-29T17:48:29.123Z,5.78
2022-09-29T17:50:59.218Z,4.70
2022-09-29T17:53:26.612Z,4.90
2022-09-29T17:55:56.387Z,4.88
2022-09-29T17:58:23.793Z,4.63
2022-09-29T18:00:53.020Z,4.38
2022-09-29T18:03:21.515Z,4.97
2022-09-29T18:05:56.417Z,5.30
2022-09-29T18:08:26.240Z,4.70
2022-09-29T18:11:01.209Z,4.40
2022-09-29T18:13:31.539Z,4.28
2022-09-29T18:16:00.107Z,5.22
2022-09-29T18:18:27.455Z,4.70
2022-09-29T18:20:54.743Z,4.60
2022-09-29T18:23:24.135Z,5.18
2022-09-29T18:25:52.743Z,4.43
2022-09-29T18:28:20.241Z,4.75
2022-09-29T18:30:50.616Z,5.60
2022-09-29T18:33:19.702Z,5.25
2022-09-29T18:35:52.693Z,4.85
2022-09-29T18:38:20.077Z,4.72
2022-09-29T18:40:47.462Z,5.05
2022-09-29T18:43:15.070Z,5.50
2022-09-29T18:45:43.559Z,5.07
2022-09-29T18:48:13.844Z,4.55
2022-09-29T18:50:44.125Z,5.00
2022-09-29T18:53:13.178Z,5.47
2022-09-29T18:55:43.626Z,5.80
2022-09-29T18:58:14.310Z,5.65
2022-09-29T19:00:50.934Z,5.90
2022-09-29T19:03:19.360Z,5.70
2022-09-29T19:05:48.044Z,6.40
2022-09-29T19:08:16.844Z,6.80
2022-09-29T19:10:55.905Z,5.70
2022-09-29T19:13:23.393Z,5.25
2022-09-29T19:15:50.778Z,5.90
2022-09-29T19:18:23.441Z,5.05
2022-09-29T19:21:13.277Z,5.65
2022-09-29T19:23:43.994Z,5.18
2022-09-29T19:26:14.378Z,5.10
2022-09-29T19:28:41.692Z,5.15
2022-09-29T19:31:15.347Z,5.28
2022-09-29T19:33:43.332Z,5.45
2022-09-29T19:36:16.153Z,6.20
2022-09-29T19:38:45.447Z,5.72
2022-09-29T19:41:23.982Z,5.90
2022-09-29T19:43:52.372Z,5.18
2022-09-29T19:46:20.588Z,6.95
2022-09-29T19:48:47.973Z,5.50
2022-09-29T19:51:35.165Z,5.65
2022-09-29T19:54:20.482Z,6.65
2022-09-29T19:57:06.323Z,6.53
2022-09-29T19:59:35.993Z,6.32
2022-09-29T20:02:06.510Z,6.13
2022-09-29T20:04:35.648Z,6.20
2022-09-29T20:07:04.415Z,5.90
2022-09-29T20:09:31.820Z,7.05
2022-09-29T20:11:59.854Z,6.38
2022-09-29T20:14:27.806Z,6.38
2022-09-29T20:16:57.361Z,6.15
2022-09-29T20:19:24.736Z,6.47
2022-09-29T20:21:53.865Z,6.07
2022-09-29T20:24:24.236Z,7.35
2022-09-29T20:26:51.582Z,8.18
2022-09-29T20:29:20.221Z,8.60
2022-09-29T20:31:48.252Z,8.32
2022-09-29T20:34:18.607Z,9.25
2022-09-29T20:36:48.696Z,7.75
2022-09-29T20:39:21.614Z,9.48
2022-09-29T20:41:49.707Z,8.23
2022-09-29T20:44:20.089Z,9.38
2022-09-29T20:46:47.323Z,8.93
2022-09-29T20:49:14.370Z,9.95
2022-09-29T20:51:41.568Z,9.27
2022-09-29T20:54:11.361Z,9.65
2022-09-29T20:56:44.606Z,9.65
2022-09-29T20:59:16.895Z,8.48
2022-09-29T21:01:45.954Z,10.02
2022-09-29T21:04:18.094Z,9.55
2022-09-29T21:06:49.960Z,9.40
2022-09-29T21:09:20.108Z,9.30
2022-09-29T21:11:47.548Z,8.23
2022-09-29T21:14:20.298Z,8.63
2022-09-29T21:16:51.523Z,8.05
2022-09-29T21:19:19.714Z,7.80
2022-09-29T21:21:46.702Z,7.68
2022-09-29T21:24:14.816Z,7.57
2022-09-29T21:26:42.365Z,6.47
2022-09-29T21:29:15.435Z,6.63
2022-09-29T21:31:42.581Z,6.40
2022-09-29T21:34:11.490Z,6.60
2022-09-29T21:36:38.536Z,6.00
2022-09-29T21:39:08.719Z,5.68
2022-09-29T21:41:41.868Z,6.25
2022-09-29T21:44:13.295Z,5.50
2022-09-29T21:46:40.699Z,4.55
2022-09-29T21:49:09.529Z,5.10
2022-09-29T21:51:42.382Z,5.28
2022-09-29T21:54:18.125Z,5.85
2022-09-29T21:56:46.224Z,5.57
2022-09-29T21:59:16.206Z,5.03
2022-09-29T22:01:44.018Z,4.32
2022-09-29T22:04:11.372Z,4.95
2022-09-29T22:06:39.961Z,5.40
2022-09-29T22:09:09.468Z,5.57
2022-09-29T22:11:39.130Z,5.05
2022-09-29T22:14:11.794Z,5.50
2022-09-29T22:16:40.035Z,5.60
2022-09-29T22:19:24.416Z,6.22
2022-09-29T22:21:55.626Z,5.03
2022-09-29T22:24:24.297Z,5.40
2022-09-29T22:26:52.285Z,5.18
2022-09-29T22:29:20.197Z,5.32
2022-09-29T22:31:47.574Z,5.20
2022-09-29T22:34:14.748Z,5.15
2022-09-29T22:36:42.046Z,5.10
2022-09-29T22:39:10.353Z,5.15
2022-09-29T22:41:39.946Z,5.03
2022-09-29T22:44:07.941Z,4.65
2022-09-29T22:46:35.349Z,4.35
2022-09-29T22:49:02.939Z,4.07
2022-09-29T22:51:30.426Z,4.13
2022-09-29T22:53:57.585Z,3.72
2022-09-29T22:56:28.885Z,3.10
2022-09-29T22:59:04.344Z,3.83
2022-09-29T23:01:33.553Z,3.20
2022-09-29T23:04:02.091Z,3.35
2022-09-29T23:06:29.152Z,3.10
2022-09-29T23:08:56.684Z,3.55
2022-09-29T23:11:24.224Z,3.40
2022-09-29T23:13:52.967Z,3.40
2022-09-29T23:16:20.173Z,3.20
2022-09-29T23:18:51.493Z,3.40
2022-09-29T23:21:21.670Z,3.65
2022-09-29T23:23:53.531Z,3.65
2022-09-29T23:26:20.691Z,3.45
2022-09-29T23:28:49.245Z,3.22
2022-09-29T23:31:16.451Z,3.72
2022-09-29T23:33:44.396Z,3.42
2022-09-29T23:36:15.631Z,3.20
2022-09-29T23:39:03.665Z,4.15
2022-09-29T23:41:32.387Z,3.60
2022-09-29T23:44:05.615Z,3.42
2022-09-29T23:46:35.372Z,3.50
2022-09-29T23:49:09.542Z,3.55
2022-09-29T23:51:43.095Z,3.35
2022-09-29T23:54:12.749Z,2.92
2022-09-29T23:56:40.235Z,2.83
2022-09-29T23:59:07.563Z,3.22
